Time;durP1;ratioP1;P1;durP2;ratioP2;P2;SDS_P1;SDS_P2;PMS_P1;PMS_P2;Temp;Humidity;BMP_temperature;BMP_pressure;BME280_temperature;BME280_humidity;BME280_pressure;Samples;Min_cycle;Max_cycle;Signal;HPM_P1;HPM_P2
2021/12/26 00:00:16;;;;;;;8.32;3.83;;;-3.40;99.90;;;;;;5035195;28;20389;-86
2021/12/26 00:02:42;;;;;;;7.15;4.00;;;-5.50;99.90;;;;;;5034851;28;20035;-86
2021/12/26 00:05:08;;;;;;;8.20;3.60;;;-5.70;99.90;;;;;;5032376;28;20045;-86
2021/12/26 00:07:35;;;;;;;6.22;3.83;;;-5.70;99.90;;;;;;5017951;28;20727;-86
2021/12/26 00:10:02;;;;;;;7.20;3.65;;;-5.90;99.90;;;;;;5035349;28;20059;-86
2021/12/26 00:12:28;;;;;;;5.03;3.67;;;-4.80;99.90;;;;;;5018043;28;21712;-86
2021/12/26 00:14:54;;;;;;;6.75;3.67;;;;;;;;;;5034437;28;20036;-86
2021/12/26 00:17:20;;;;;;;9.23;3.85;;;-5.60;99.90;;;;;;5033735;28;20032;-86
2021/12/26 00:19:45;;;;;;;7.85;4.45;;;-5.80;99.90;;;;;;5018664;28;20036;-86
2021/12/26 00:22:11;;;;;;;8.10;4.60;;;-5.60;99.90;;;;;;5018128;28;20366;-86
2021/12/26 00:24:37;;;;;;;8.02;4.32;;;-6.00;99.90;;;;;;5018227;28;20037;-86
2021/12/26 00:27:03;;;;;;;8.10;4.65;;;-4.00;99.90;;;;;;5034509;28;20037;-85
2021/12/26 00:29:29;;;;;;;9.20;4.13;;;-5.70;99.90;;;;;;5034331;28;20488;-86
2021/12/26 00:31:54;;;;;;;8.18;4.13;;;-5.70;99.90;;;;;;5018452;28;20033;-86
2021/12/26 00:34:20;;;;;;;7.78;3.92;;;-5.70;99.90;;;;;;5045366;28;20049;-86
2021/12/26 00:36:46;;;;;;;5.90;3.58;;;-3.40;99.90;;;;;;5035283;28;20143;-86
2021/12/26 00:39:12;;;;;;;6.95;4.47;;;-5.80;99.90;;;;;;5034462;28;20037;-85
2021/12/26 00:41:39;;;;;;;6.60;3.85;;;-6.00;99.90;;;;;;5034430;28;20037;-85
2021/12/26 00:44:06;;;;;;;8.27;4.25;;;-4.30;99.90;;;;;;5034279;28;20045;-86
2021/12/26 00:46:33;;;;;;;7.72;4.55;;;-3.60;99.90;;;;;;5034361;28;20080;-85
2021/12/26 00:48:59;;;;;;;6.45;3.72;;;-3.40;99.90;;;;;;5051297;28;20425;-86
2021/12/26 00:51:25;;;;;;;10.40;4.57;;;-6.20;99.90;;;;;;5018119;28;20090;-86
2021/12/26 00:53:51;;;;;;;6.53;4.13;;;;;;;;;;5051050;28;20041;-86
2021/12/26 00:56:17;;;;;;;5.80;3.85;;;-5.50;99.90;;;;;;5050981;28;20048;-86
2021/12/26 00:58:43;;;;;;;;;;;-2.90;99.90;;;;;;5018862;28;20041;-86
2021/12/26 01:01:09;;;;;;;7.47;3.50;;;-5.90;99.90;;;;;;5068077;28;19920;-87
2021/12/26 01:03:35;;;;;;;6.53;3.80;;;-4.20;99.90;;;;;;5034342;28;20094;-86
2021/12/26 01:06:04;;;;;;;6.28;3.47;;;-5.60;99.90;;;;;;5034012;28;20045;-86
2021/12/26 01:08:36;;;;;;;6.05;3.70;;;-5.60;99.90;;;;;;5017173;28;20045;-86
2021/12/26 01:11:08;;;;;;;5.93;3.40;;;-5.80;99.90;;;;;;5034376;28;20053;-86
2021/12/26 01:13:37;;;;;;;6.45;4.00;;;-5.70;99.90;;;;;;5082050;28;20075;-86
2021/12/26 01:16:09;;;;;;;5.97;3.42;;;-5.70;99.90;;;;;;5051371;28;20053;-87
2021/12/26 01:18:38;;;;;;;6.78;3.65;;;-5.70;99.90;;;;;;5035961;28;20567;-87
2021/12/26 01:21:21;;;;;;;5.07;3.50;;;-5.70;99.90;;;;;;5055380;28;20045;-87
2021/12/26 01:23:51;;;;;;;5.45;3.78;;;-5.60;99.90;;;;;;5039625;28;20045;-86
2021/12/26 01:26:18;;;;;;;6.22;3.60;;;-3.20;99.90;;;;;;5054045;28;20087;-86
2021/12/26 01:28:43;;;;;;;;;;;-5.70;99.90;;;;;;5004188;28;20037;-86
2021/12/26 01:31:09;;;;;;;7.65;3.40;;;-5.40;99.90;;;;;;5019457;28;20430;-86
2021/12/26 01:33:35;;;;;;;5.88;3.10;;;-6.00;99.90;;;;;;5035268;28;20385;-87
2021/12/26 01:36:02;;;;;;;7.28;3.03;;;-5.60;99.90;;;;;;5018681;28;20073;-86
2021/12/26 01:38:27;;;;;;;;;;;-5.80;99.90;;;;;;5001878;28;20691;-87
2021/12/26 01:40:57;;;;;;;6.93;3.58;;;-5.10;99.90;;;;;;5036753;28;19971;-86
2021/12/26 01:43:30;;;;;;;4.25;3.08;;;-5.60;99.90;;;;;;5035458;28;20037;-86
2021/12/26 01:45:56;;;;;;;5.15;3.22;;;-5.70;99.90;;;;;;5036108;28;20051;-86
2021/12/26 01:48:22;;;;;;;7.90;3.00;;;-5.70;99.90;;;;;;5035891;28;20037;-87
2021/12/26 01:50:50;;;;;;;4.80;3.05;;;-6.80;99.90;;;;;;5035791;28;20033;-87
2021/12/26 01:53:19;;;;;;;5.57;3.10;;;-3.20;99.90;;;;;;5019307;28;20099;-87
2021/12/26 01:55:45;;;;;;;6.28;2.97;;;-5.50;99.90;;;;;;5036767;28;20408;-87
2021/12/26 01:58:16;;;;;;;;;;;-3.80;99.90;;;;;;5052426;28;20033;-87
2021/12/26 02:00:46;;;;;;;5.32;3.03;;;-5.60;99.90;;;;;;5052085;28;19917;-87
2021/12/26 02:03:12;;;;;;;5.47;2.90;;;-3.70;99.90;;;;;;5052086;28;20036;-85
2021/12/26 02:05:38;;;;;;;6.13;3.10;;;-3.80;99.90;;;;;;5051083;28;20475;-83
2021/12/26 02:08:05;;;;;;;5.43;3.05;;;-5.60;99.90;;;;;;5050825;28;20056;-83
2021/12/26 02:10:31;;;;;;;5.40;2.90;;;-5.60;99.90;;;;;;5034632;28;20041;-84
2021/12/26 02:12:57;;;;;;;5.03;2.63;;;-5.60;99.90;;;;;;5052510;28;20036;-83
2021/12/26 02:15:22;;;;;;;4.05;2.50;;;-5.60;99.90;;;;;;5051283;28;20120;-86
2021/12/26 02:17:48;;;;;;;5.55;2.63;;;-5.70;99.90;;;;;;5052733;28;20041;-86
2021/12/26 02:20:26;;;;;;;3.83;2.50;;;-5.60;99.90;;;;;;5053425;28;20037;-86
2021/12/26 02:22:57;;;;;;;4.57;2.42;;;-5.60;99.90;;;;;;5037652;28;20028;-86
2021/12/26 02:27:30;;;;;;;3.13;2.20;;;-5.30;99.90;;;;;;5021092;28;20489;-82
2021/12/26 02:28:16;;;;;;;3.90;2.53;;;-5.70;99.90;;;;;;5052655;28;20117;-82
2021/12/26 02:30:42;;;;;;;4.40;2.70;;;-5.60;99.90;;;;;;5083143;28;20037;-82
2021/12/26 02:33:11;;;;;;;4.72;2.63;;;-4.90;99.90;;;;;;5033545;28;20139;-82
2021/12/26 02:35:39;;;;;;;3.60;2.60;;;-5.80;99.90;;;;;;5035727;28;20045;-82
2021/12/26 02:38:06;;;;;;;5.28;2.35;;;-5.60;99.90;;;;;;5052425;28;20461;-82
2021/12/26 02:40:32;;;;;;;5.20;2.50;;;-5.70;99.90;;;;;;5049479;28;20037;-82
2021/12/26 02:42:58;;;;;;;5.97;2.40;;;-5.40;99.90;;;;;;5049744;28;20119;-83
2021/12/26 02:45:24;;;;;;;3.78;2.55;;;-5.70;99.90;;;;;;5049949;28;20123;-83
2021/12/26 02:47:51;;;;;;;5.13;2.63;;;-5.70;99.90;;;;;;5049531;28;20546;-84
2021/12/26 02:50:23;;;;;;;2.85;2.20;;;-5.70;99.90;;;;;;5050177;28;20504;-84
2021/12/26 02:52:50;;;;;;;4.93;2.70;;;-5.30;99.90;;;;;;5033726;28;20041;-79
2021/12/26 02:55:17;;;;;;;6.63;3.00;;;-5.70;99.90;;;;;;5050316;28;20452;-83
2021/12/26 02:57:48;;;;;;;6.03;2.92;;;-5.80;99.90;;;;;;5050605;28;20485;-82
2021/12/26 03:00:18;;;;;;;3.88;2.72;;;-5.70;99.90;;;;;;5050526;28;20659;-82
2021/12/26 03:02:46;;;;;;;5.50;2.70;;;-5.70;99.90;;;;;;5048690;28;20110;-80
2021/12/26 03:05:13;;;;;;;5.43;3.00;;;-5.80;99.90;;;;;;5031433;28;20374;-79
2021/12/26 03:07:40;;;;;;;3.63;2.78;;;-4.50;99.90;;;;;;5048325;28;20041;-83
2021/12/26 03:10:09;;;;;;;;;;;-4.00;99.90;;;;;;5050313;28;20421;-83
2021/12/26 03:12:41;;;;;;;4.97;2.63;;;-5.90;99.90;;;;;;5049418;28;19923;-83
2021/12/26 03:15:10;;;;;;;5.82;2.75;;;-6.00;99.90;;;;;;5050977;28;20124;-83
2021/12/26 03:17:36;;;;;;;8.57;3.10;;;-6.00;99.90;;;;;;5049660;28;20044;-83
2021/12/26 03:20:08;;;;;;;5.43;3.00;;;-6.00;99.90;;;;;;5019031;28;20084;-83
2021/12/26 03:22:33;;;;;;;5.80;3.28;;;-6.00;99.90;;;;;;5028997;28;20049;-83
2021/12/26 03:24:59;;;;;;;3.40;2.50;;;-6.10;99.90;;;;;;5063170;28;20099;-83
2021/12/26 03:27:25;;;;;;;4.35;2.80;;;-6.10;99.90;;;;;;5062376;28;20037;-83
2021/12/26 03:29:50;;;;;;;5.38;2.90;;;-6.00;99.90;;;;;;5029065;28;20425;-83
2021/12/26 03:32:16;;;;;;;4.40;3.00;;;-5.90;99.90;;;;;;5062626;28;20371;-82
2021/12/26 03:34:47;;;;;;;5.20;3.03;;;-6.10;99.90;;;;;;5029800;28;20451;-82
2021/12/26 03:37:13;;;;;;;5.10;2.67;;;-6.20;99.90;;;;;;5083289;28;20392;-82
2021/12/26 03:39:39;;;;;;;4.47;2.72;;;-6.10;99.90;;;;;;5048795;28;20037;-83
2021/12/26 03:42:05;;;;;;;4.15;2.60;;;-6.10;99.90;;;;;;5065416;28;20190;-82
2021/12/26 03:44:31;;;;;;;;;;;-6.10;99.90;;;;;;5078283;28;20041;-83
2021/12/26 03:46:56;;;;;;;5.22;2.80;;;-6.20;99.90;;;;;;5048134;28;19917;-83
2021/12/26 03:49:22;;;;;;;3.97;2.70;;;-6.10;99.90;;;;;;5048450;28;20064;-83
2021/12/26 03:51:48;;;;;;;6.55;2.60;;;-6.10;99.90;;;;;;5032075;28;20029;-82
2021/12/26 03:54:14;;;;;;;5.18;2.72;;;-6.10;99.90;;;;;;5048663;28;20033;-82
2021/12/26 03:56:39;;;;;;;4.13;2.67;;;-6.10;99.90;;;;;;5082237;28;20079;-83
2021/12/26 03:59:05;;;;;;;4.78;2.92;;;-6.20;99.90;;;;;;5082748;28;20049;-83
2021/12/26 04:01:32;;;;;;;6.22;2.53;;;-6.20;99.90;;;;;;5081783;28;20068;-83
2021/12/26 04:03:57;;;;;;;5.57;2.72;;;-6.10;99.90;;;;;;5065409;28;20053;-82
2021/12/26 04:06:23;;;;;;;5.72;2.90;;;-6.10;99.90;;;;;;5048666;28;20033;-82
2021/12/26 04:08:49;;;;;;;5.07;2.70;;;-6.00;99.90;;;;;;5019698;28;20045;-82
2021/12/26 04:11:15;;;;;;;4.65;2.63;;;-6.10;99.90;;;;;;5045641;28;20053;-82
2021/12/26 04:13:41;;;;;;;3.92;2.67;;;-6.10;99.90;;;;;;5061754;28;20080;-82
2021/12/26 04:16:07;;;;;;;4.07;2.45;;;-6.10;99.90;;;;;;5061684;28;20084;-82
2021/12/26 04:18:33;;;;;;;4.82;2.60;;;-5.50;99.90;;;;;;5060951;28;20479;-82
2021/12/26 04:20:59;;;;;;;;;;;-6.20;99.90;;;;;;5046362;28;20145;-82
2021/12/26 04:23:25;;;;;;;4.65;2.50;;;-3.90;99.90;;;;;;5028561;28;20125;-82
2021/12/26 04:25:50;;;;;;;4.57;2.72;;;-6.40;99.90;;;;;;5061628;28;20049;-82
2021/12/26 04:28:19;;;;;;;3.72;2.70;;;-6.10;99.90;;;;;;5061776;28;20053;-82
2021/12/26 04:30:46;;;;;;;6.32;3.00;;;-6.20;99.90;;;;;;5060992;28;20096;-82
2021/12/26 04:33:13;;;;;;;4.80;2.47;;;-6.10;99.90;;;;;;5045654;28;20033;-83
2021/12/26 04:35:38;;;;;;;;;;;-6.20;99.90;;;;;;5061683;28;20037;-82
2021/12/26 04:38:04;;;;;;;5.32;2.65;;;-6.30;99.90;;;;;;5027741;28;19917;-82
2021/12/26 04:40:30;;;;;;;5.10;2.42;;;-6.00;99.90;;;;;;5044759;28;20046;-82
2021/12/26 04:42:56;;;;;;;4.70;2.85;;;-6.20;99.90;;;;;;5080363;28;20401;-83
2021/12/26 04:45:23;;;;;;;5.43;2.90;;;-6.40;99.90;;;;;;5047952;28;20087;-82
2021/12/26 04:47:52;;;;;;;4.25;2.63;;;-5.50;99.90;;;;;;5080769;28;20047;-83
2021/12/26 04:50:23;;;;;;;3.47;2.53;;;-4.10;99.90;;;;;;5064895;28;20548;-82
2021/12/26 04:52:52;;;;;;;5.40;2.70;;;-6.30;99.90;;;;;;5080910;28;20060;-82
2021/12/26 04:55:21;;;;;;;4.78;2.70;;;-6.30;99.90;;;;;;5081375;28;20477;-82
2021/12/26 04:57:48;;;;;;;4.63;2.38;;;-6.30;99.90;;;;;;5080879;28;20350;-82
2021/12/26 05:00:17;;;;;;;6.15;2.90;;;-6.30;99.90;;;;;;5065018;28;20049;-82
2021/12/26 05:02:48;;;;;;;4.32;2.75;;;-6.20;99.90;;;;;;5043955;28;20083;-82
2021/12/26 05:05:14;;;;;;;3.38;2.55;;;-6.10;99.90;;;;;;5044779;28;20045;-82
2021/12/26 05:07:42;;;;;;;5.45;2.78;;;-6.30;99.90;;;;;;5043321;28;20051;-82
2021/12/26 05:10:11;;;;;;;5.57;2.80;;;-6.30;99.90;;;;;;5044339;28;20053;-82
2021/12/26 05:12:37;;;;;;;5.25;2.30;;;-6.60;99.90;;;;;;5060429;28;20034;-82
2021/12/26 05:15:06;;;;;;;5.45;2.42;;;-6.40;99.90;;;;;;5060448;28;20046;-82
2021/12/26 05:17:32;;;;;;;2.95;2.30;;;-6.30;99.90;;;;;;5060533;28;20052;-81
2021/12/26 05:19:57;;;;;;;5.10;3.08;;;-6.30;99.90;;;;;;5027096;28;20328;-82
2021/12/26 05:22:24;;;;;;;3.33;2.20;;;-6.30;99.90;;;;;;5060701;28;20045;-82
2021/12/26 05:24:50;;;;;;;5.45;2.80;;;-4.70;99.90;;;;;;5043547;28;20068;-82
2021/12/26 05:27:16;;;;;;;4.65;2.60;;;-6.40;99.90;;;;;;5043946;28;20033;-82
2021/12/26 05:29:41;;;;;;;5.40;2.50;;;-6.40;99.90;;;;;;5059986;28;20462;-82
2021/12/26 05:32:07;;;;;;;4.93;2.80;;;-6.40;99.90;;;;;;5055716;28;20098;-82
2021/12/26 05:34:33;;;;;;;4.53;3.00;;;-6.10;99.90;;;;;;5080677;28;20056;-82
2021/12/26 05:36:59;;;;;;;4.82;2.80;;;-6.40;99.90;;;;;;5063441;28;20081;-82
2021/12/26 05:39:25;;;;;;;4.35;2.40;;;-6.40;99.90;;;;;;5080614;28;20352;-82
2021/12/26 05:41:51;;;;;;;4.28;2.70;;;-6.30;99.90;;;;;;5046739;28;20044;-82
2021/12/26 05:44:16;;;;;;;3.78;2.47;;;-6.40;99.90;;;;;;5063984;28;20049;-82
2021/12/26 05:46:42;;;;;;;3.83;2.50;;;-6.40;99.90;;;;;;5063196;28;20499;-82
2021/12/26 05:49:08;;;;;;;4.32;2.75;;;-7.00;99.90;;;;;;5060237;28;20049;-82
2021/12/26 05:51:34;;;;;;;3.45;2.38;;;-6.50;99.90;;;;;;5060213;28;20034;-82
2021/12/26 05:54:03;;;;;;;5.18;2.95;;;-6.50;99.90;;;;;;5043402;28;20042;-82
2021/12/26 05:56:28;;;;;;;4.35;2.63;;;-6.60;99.90;;;;;;5060496;28;20179;-82
2021/12/26 05:58:54;;;;;;;5.95;2.83;;;-6.50;99.90;;;;;;5060384;28;20081;-82
2021/12/26 06:01:20;;;;;;;4.65;2.80;;;-6.50;99.90;;;;;;5043599;28;20041;-82
2021/12/26 06:03:46;;;;;;;5.28;2.72;;;-6.60;99.90;;;;;;5060034;28;20041;-81
2021/12/26 06:06:11;;;;;;;6.13;3.05;;;-6.60;99.90;;;;;;5063513;28;20050;-82
2021/12/26 06:08:37;;;;;;;4.70;2.90;;;-6.30;99.90;;;;;;5063412;28;20514;-81
2021/12/26 06:11:03;;;;;;;5.10;2.92;;;-6.60;99.90;;;;;;5063697;28;20092;-81
2021/12/26 06:13:31;;;;;;;5.18;2.45;;;-6.60;99.90;;;;;;5064510;28;20555;-81
2021/12/26 06:15:57;;;;;;;5.47;3.10;;;-6.50;99.90;;;;;;5063558;28;20544;-82
2021/12/26 06:18:22;;;;;;;4.97;2.53;;;-6.60;99.90;;;;;;5030579;28;20041;-81
2021/12/26 06:20:48;;;;;;;4.15;2.60;;;-6.50;99.90;;;;;;5063296;28;20041;-81
2021/12/26 06:23:14;;;;;;;4.65;2.80;;;-6.50;99.90;;;;;;5063167;28;20045;-81
2021/12/26 06:25:40;;;;;;;4.75;2.65;;;-6.50;99.90;;;;;;5063213;28;20069;-82
2021/12/26 06:28:06;;;;;;;4.43;2.78;;;-6.50;99.90;;;;;;5063146;28;20073;-82
2021/12/26 06:30:32;;;;;;;4.03;2.60;;;-6.40;99.90;;;;;;5046824;28;20041;-81
2021/12/26 06:32:57;;;;;;;6.10;2.50;;;-6.60;99.90;;;;;;5063034;28;20044;-82
2021/12/26 06:35:23;;;;;;;7.00;3.00;;;-6.40;99.90;;;;;;5063564;28;20034;-82
2021/12/26 06:37:49;;;;;;;3.92;2.80;;;-7.60;99.90;;;;;;5062876;28;20056;-82
2021/12/26 06:40:15;;;;;;;4.20;2.85;;;-5.90;99.90;;;;;;5062867;28;20516;-82
2021/12/26 06:42:43;;;;;;;3.83;2.75;;;-6.40;99.90;;;;;;5063328;28;20048;-82
2021/12/26 06:45:16;;;;;;;3.40;2.70;;;-6.40;99.90;;;;;;5062471;28;20045;-82
2021/12/26 06:47:45;;;;;;;4.70;2.40;;;-7.50;99.90;;;;;;5063146;28;20398;-82
2021/12/26 06:50:11;;;;;;;4.28;3.00;;;-6.40;99.90;;;;;;5062904;28;20045;-82
2021/12/26 06:52:37;;;;;;;4.53;3.10;;;-5.60;99.90;;;;;;5062622;28;20132;-82
2021/12/26 06:55:04;;;;;;;5.70;2.92;;;-6.30;99.90;;;;;;5046013;28;20045;-81
2021/12/26 06:57:30;;;;;;;4.32;2.60;;;-6.30;99.90;;;;;;5062695;28;20080;-82
2021/12/26 06:59:55;;;;;;;5.20;3.20;;;-6.20;99.90;;;;;;5045913;28;20745;-82
2021/12/26 07:02:21;;;;;;;5.22;3.00;;;-6.20;99.90;;;;;;5029809;28;20045;-82
2021/12/26 07:04:47;;;;;;;4.75;2.92;;;-6.10;99.90;;;;;;5062898;28;20068;-82
2021/12/26 07:07:13;;;;;;;5.32;3.28;;;-6.10;99.90;;;;;;5062372;28;20107;-82
2021/12/26 07:09:39;;;;;;;5.72;3.28;;;-6.20;99.90;;;;;;5062519;28;20085;-82
2021/12/26 07:12:06;;;;;;;5.50;3.30;;;-5.90;99.90;;;;;;5062607;28;20049;-82
2021/12/26 07:14:32;;;;;;;5.38;3.33;;;-5.70;99.90;;;;;;5062774;28;20052;-82
2021/12/26 07:16:58;;;;;;;4.28;2.85;;;-6.20;99.90;;;;;;5044706;28;20045;-82
2021/12/26 07:19:23;;;;;;;5.20;2.90;;;-6.00;99.90;;;;;;5012942;28;20099;-82
2021/12/26 07:21:49;;;;;;;4.82;2.83;;;-6.10;99.90;;;;;;5062648;28;20444;-82
2021/12/26 07:24:15;;;;;;;6.00;3.00;;;-5.90;99.90;;;;;;5045843;28;20049;-82
2021/12/26 07:26:41;;;;;;;5.70;2.90;;;-5.90;99.90;;;;;;5045828;28;20092;-82
2021/12/26 07:29:07;;;;;;;5.18;3.05;;;-5.90;99.90;;;;;;5045769;28;20051;-82
2021/12/26 07:31:33;;;;;;;4.43;3.10;;;-5.90;99.90;;;;;;5045719;28;20112;-82
2021/12/26 07:33:59;;;;;;;4.95;3.00;;;-5.90;99.90;;;;;;5045880;28;20069;-82
2021/12/26 07:36:25;;;;;;;5.57;3.08;;;-5.80;99.90;;;;;;5062881;28;20073;-82
2021/12/26 07:38:53;;;;;;;6.80;3.40;;;-5.80;99.90;;;;;;5062879;28;20041;-82
2021/12/26 07:41:19;;;;;;;4.50;2.60;;;-5.70;99.90;;;;;;5062700;28;20045;-82
2021/12/26 07:43:45;;;;;;;6.80;2.88;;;-5.70;99.90;;;;;;5062045;28;20033;-82
2021/12/26 07:46:11;;;;;;;5.50;2.95;;;-5.70;99.90;;;;;;5045498;28;20099;-82
2021/12/26 07:48:37;;;;;;;3.70;2.50;;;-5.90;99.90;;;;;;5061969;28;20040;-82
2021/12/26 07:51:05;;;;;;;4.97;3.40;;;-5.90;99.90;;;;;;5081995;28;20048;-83
2021/12/26 07:53:32;;;;;;;4.78;2.83;;;-5.80;99.90;;;;;;5082400;28;20051;-82
2021/12/26 07:55:58;;;;;;;6.78;3.00;;;-5.90;99.90;;;;;;5065045;28;20088;-82
2021/12/26 07:58:24;;;;;;;4.32;2.65;;;-5.80;99.90;;;;;;5082281;28;20091;-82
2021/12/26 08:00:51;;;;;;;5.20;3.17;;;-5.70;99.90;;;;;;5064968;28;20045;-83
2021/12/26 08:03:17;;;;;;;6.63;3.30;;;-5.70;99.90;;;;;;5048324;28;20068;-83
2021/12/26 08:05:43;;;;;;;5.10;3.28;;;-5.50;99.90;;;;;;5062625;28;20454;-83
2021/12/26 08:08:09;;;;;;;;;;;-5.70;99.90;;;;;;5061730;28;20053;-83
2021/12/26 08:10:35;;;;;;;5.28;3.30;;;-5.60;99.90;;;;;;5028309;28;19975;-83
2021/12/26 08:13:01;;;;;;;6.13;3.20;;;-5.80;99.90;;;;;;5061477;28;20046;-83
2021/12/26 08:15:29;;;;;;;4.13;3.30;;;-5.60;99.90;;;;;;5029801;28;20471;-83
2021/12/26 08:17:55;;;;;;;8.15;3.95;;;-5.60;99.90;;;;;;5062153;28;20041;-83
2021/12/26 08:20:22;;;;;;;4.80;3.30;;;-5.60;99.90;;;;;;5030088;28;20088;-83
2021/12/26 08:22:48;;;;;;;4.78;3.45;;;-5.50;99.90;;;;;;5061856;28;20136;-83
2021/12/26 08:25:13;;;;;;;6.15;3.42;;;-5.60;99.90;;;;;;5061424;28;20073;-83
2021/12/26 08:27:39;;;;;;;5.78;3.40;;;-5.50;99.90;;;;;;4995072;28;20124;-83
2021/12/26 08:30:06;;;;;;;4.85;3.45;;;-5.30;99.90;;;;;;5061829;28;20049;-83
2021/12/26 08:32:34;;;;;;;4.55;3.60;;;-5.10;99.90;;;;;;5061811;28;20481;-83
2021/12/26 08:35:00;;;;;;;5.25;3.92;;;-2.90;99.90;;;;;;5044462;28;20041;-83
2021/12/26 08:37:27;;;;;;;5.95;3.58;;;-3.90;99.90;;;;;;5044724;28;20468;-83
2021/12/26 08:39:53;;;;;;;6.55;3.55;;;-3.40;99.90;;;;;;5061735;28;20521;-83
2021/12/26 08:42:19;;;;;;;5.07;3.72;;;-3.10;99.90;;;;;;5044628;28;20041;-83
2021/12/26 08:44:45;;;;;;;5.18;3.65;;;-2.50;99.90;;;;;;5061593;28;20045;-83
2021/12/26 08:47:11;;;;;;;5.28;3.08;;;-2.60;99.90;;;;;;5044487;28;20049;-83
2021/12/26 08:49:38;;;;;;;5.30;3.50;;;-2.00;99.90;;;;;;5061563;28;20540;-83
2021/12/26 08:52:05;;;;;;;;;;;-2.00;99.90;;;;;;5045535;28;20061;-82
2021/12/26 08:54:33;;;;;;;4.65;3.50;;;-1.60;99.90;;;;;;5028138;28;19940;-82
2021/12/26 08:57:02;;;;;;;5.68;3.40;;;-1.70;99.90;;;;;;5045182;28;20045;-83
2021/12/26 08:59:30;;;;;;;4.78;3.28;;;-0.90;99.90;;;;;;5061854;28;20064;-84
2021/12/26 09:02:02;;;;;;;6.00;3.70;;;-1.60;99.90;;;;;;5061293;28;20049;-82
2021/12/26 09:04:29;;;;;;;5.35;3.40;;;-1.70;99.90;;;;;;5061653;28;20409;-82
2021/12/26 09:06:56;;;;;;;5.65;3.45;;;-1.80;99.90;;;;;;5044614;28;20324;-83
2021/12/26 09:09:21;;;;;;;6.68;4.10;;;-1.80;99.90;;;;;;5063299;28;20512;-83
2021/12/26 09:11:47;;;;;;;4.82;3.03;;;-2.40;99.90;;;;;;5061862;28;20042;-82
2021/12/26 09:14:14;;;;;;;6.85;3.70;;;-2.80;99.90;;;;;;5044708;28;20041;-83
2021/12/26 09:16:40;;;;;;;5.68;3.55;;;-3.30;99.90;;;;;;5061123;28;20088;-82
2021/12/26 09:19:06;;;;;;;5.60;3.72;;;-3.30;99.90;;;;;;5061509;28;20042;-83
2021/12/26 09:21:32;;;;;;;;;;;-2.80;99.90;;;;;;5045316;28;20045;-83
2021/12/26 09:23:58;;;;;;;5.22;3.65;;;-2.20;99.90;;;;;;5011706;28;19917;-83
2021/12/26 09:26:24;;;;;;;5.00;3.50;;;-1.60;99.90;;;;;;5043659;28;20041;-83
2021/12/26 09:28:50;;;;;;;6.15;3.67;;;-0.80;99.90;;;;;;5061382;28;20038;-84
2021/12/26 09:31:16;;;;;;;4.38;3.35;;;-0.60;99.90;;;;;;5061581;28;20052;-83
2021/12/26 09:33:43;;;;;;;4.68;3.20;;;0.30;99.90;;;;;;5062551;28;20044;-84
2021/12/26 09:36:08;;;;;;;6.45;3.45;;;0.00;99.90;;;;;;5027818;28;20101;-83
2021/12/26 09:38:34;;;;;;;7.18;3.85;;;1.20;99.90;;;;;;5045204;28;20137;-84
2021/12/26 09:41:03;;;;;;;5.53;3.55;;;-0.20;99.90;;;;;;5032366;28;20042;-84
2021/12/26 09:43:28;;;;;;;6.22;3.38;;;-0.50;99.90;;;;;;5084569;28;20124;-84
2021/12/26 09:45:54;;;;;;;5.15;3.42;;;-0.60;99.90;;;;;;5053045;28;20275;-83
2021/12/26 09:48:20;;;;;;;5.53;3.50;;;-1.00;99.90;;;;;;5068470;28;20041;-83
2021/12/26 09:50:46;;;;;;;4.38;3.10;;;-0.80;99.90;;;;;;5051737;28;20103;-84
2021/12/26 09:53:13;;;;;;;5.80;3.05;;;-0.80;99.90;;;;;;5085871;28;20037;-84
2021/12/26 09:55:39;;;;;;;;;;;1.40;99.90;;;;;;5087131;28;20052;-85
2021/12/26 09:58:04;;;;;;;6.28;3.63;;;0.60;99.90;;;;;;5043982;28;19917;-85
2021/12/26 10:00:34;;;;;;;5.07;3.00;;;0.20;99.90;;;;;;5048996;28;20051;-84
2021/12/26 10:03:18;;;;;;;4.18;3.60;;;0.80;99.90;;;;;;5031555;28;20045;-84
2021/12/26 10:06:02;;;;;;;6.03;3.45;;;1.50;99.40;;;;;;5048505;28;20531;-84
2021/12/26 10:08:31;;;;;;;6.95;3.83;;;1.60;98.60;;;;;;5049132;28;20103;-84
2021/12/26 10:11:16;;;;;;;5.15;3.25;;;1.80;97.70;;;;;;5064531;28;20049;-84
2021/12/26 10:13:49;;;;;;;4.50;3.22;;;1.10;99.00;;;;;;5048066;28;20052;-84
2021/12/26 10:16:19;;;;;;;5.72;3.50;;;1.70;98.40;;;;;;5048375;28;20091;-84
2021/12/26 10:18:46;;;;;;;6.45;3.60;;;2.10;97.80;;;;;;5047842;28;20037;-84
2021/12/26 10:21:46;;;;;;;6.70;4.35;;;3.20;97.50;;;;;;5032432;28;20120;-85
2021/12/26 10:24:12;;;;;;;4.70;3.38;;;2.20;97.00;;;;;;5001234;28;20052;-85
2021/12/26 10:26:43;;;;;;;5.47;3.30;;;1.80;97.20;;;;;;5065642;28;20041;-83
2021/12/26 10:29:13;;;;;;;5.93;3.45;;;2.50;97.60;;;;;;5064714;28;20038;-82
2021/12/26 10:31:48;;;;;;;6.45;3.13;;;2.80;96.40;;;;;;5064195;28;20065;-84
2021/12/26 10:34:20;;;;;;;5.65;3.40;;;2.90;96.10;;;;;;5064931;28;20045;-84
2021/12/26 10:36:48;;;;;;;5.50;2.97;;;3.20;96.30;;;;;;5049475;28;20049;-84
2021/12/26 10:39:26;;;;;;;6.63;3.40;;;3.80;97.20;;;;;;5048839;28;20092;-86
2021/12/26 10:41:56;;;;;;;4.93;2.72;;;4.40;96.00;;;;;;5067899;28;20205;-83
2021/12/26 10:44:22;;;;;;;5.15;3.08;;;4.60;97.00;;;;;;5067162;28;20075;-82
2021/12/26 10:46:51;;;;;;;4.32;2.72;;;3.60;96.50;;;;;;5050117;28;20523;-83
2021/12/26 10:49:26;;;;;;;5.65;3.30;;;5.00;94.50;;;;;;5066688;28;20042;-83
2021/12/26 10:51:52;;;;;;;4.50;3.25;;;3.80;93.80;;;;;;5049812;28;20389;-83
2021/12/26 10:54:20;;;;;;;5.07;3.08;;;3.90;94.90;;;;;;5050248;28;20060;-83
2021/12/26 10:57:19;;;;;;;6.45;3.17;;;3.70;94.00;;;;;;5066376;28;20052;-83
2021/12/26 10:59:48;;;;;;;4.20;3.10;;;3.50;94.90;;;;;;5001866;28;20055;-83
2021/12/26 11:02:26;;;;;;;5.22;3.30;;;3.90;93.70;;;;;;5049562;28;20045;-83
2021/12/26 11:04:55;;;;;;;4.65;3.15;;;3.50;95.60;;;;;;5066745;28;20045;-83
2021/12/26 11:07:21;;;;;;;6.55;3.33;;;3.80;93.80;;;;;;5066017;28;20083;-83
2021/12/26 11:10:00;;;;;;;5.72;2.92;;;3.30;94.70;;;;;;5016480;28;20089;-83
2021/12/26 11:12:37;;;;;;;4.30;2.90;;;3.90;95.90;;;;;;5033476;28;20092;-83
2021/12/26 11:15:03;;;;;;;5.80;2.72;;;4.80;91.30;;;;;;5033029;28;20049;-84
2021/12/26 11:17:39;;;;;;;3.85;2.80;;;4.70;91.30;;;;;;5066355;28;20160;-83
2021/12/26 11:20:06;;;;;;;4.18;2.70;;;4.60;91.20;;;;;;5032750;28;20045;-83
2021/12/26 11:22:32;;;;;;;5.10;2.75;;;4.40;91.40;;;;;;5016429;28;20117;-83
2021/12/26 11:24:58;;;;;;;3.53;2.80;;;4.80;91.10;;;;;;5066527;28;20497;-82
2021/12/26 11:27:24;;;;;;;4.03;3.05;;;4.60;88.40;;;;;;5032598;28;20377;-82
2021/12/26 11:29:52;;;;;;;4.18;2.92;;;5.30;91.10;;;;;;5065890;28;20080;-82
2021/12/26 11:32:19;;;;;;;4.00;2.50;;;5.30;91.10;;;;;;5066346;28;20052;-82
2021/12/26 11:34:47;;;;;;;4.45;2.78;;;5.30;90.40;;;;;;5083819;28;20219;-82
2021/12/26 11:37:14;;;;;;;4.95;3.60;;;4.70;88.90;;;;;;5085058;28;20084;-82
2021/12/26 11:39:42;;;;;;;5.40;2.90;;;4.70;88.50;;;;;;5085082;28;20048;-81
2021/12/26 11:42:32;;;;;;;5.28;3.20;;;6.20;90.90;;;;;;5084940;28;20127;-82
2021/12/26 11:45:12;;;;;;;5.40;3.00;;;4.40;90.60;;;;;;5051157;28;20051;-82
2021/12/26 11:47:44;;;;;;;4.35;3.15;;;5.00;85.80;;;;;;5085462;28;20488;-82
2021/12/26 11:50:16;;;;;;;4.40;3.13;;;4.70;86.10;;;;;;5085725;28;20048;-82
2021/12/26 11:53:14;;;;;;;5.70;3.30;;;4.80;89.40;;;;;;5068100;28;20045;-81
2021/12/26 11:55:49;;;;;;;4.10;2.70;;;4.50;88.60;;;;;;5007813;28;20041;-81
2021/12/26 11:58:25;;;;;;;8.35;3.60;;;4.80;85.30;;;;;;5067541;28;20052;-80
2021/12/26 12:00:53;;;;;;;4.63;3.03;;;4.90;86.40;;;;;;5083870;28;20080;-81
2021/12/26 12:03:24;;;;;;;5.88;2.92;;;5.90;82.50;;;;;;5083273;28;20048;-81
2021/12/26 12:05:52;;;;;;;5.22;3.17;;;6.10;82.50;;;;;;5084321;28;20166;-80
2021/12/26 12:08:32;;;;;;;7.18;2.97;;;5.90;81.70;;;;;;5072271;28;20052;-81
2021/12/26 12:11:04;;;;;;;4.75;3.05;;;6.60;82.40;;;;;;5063943;28;20494;-81
2021/12/26 12:13:39;;;;;;;5.15;3.30;;;6.20;80.30;;;;;;5030600;28;20116;-81
2021/12/26 12:16:26;;;;;;;8.35;3.30;;;6.40;84.20;;;;;;5063669;28;20037;-81
2021/12/26 12:18:58;;;;;;;4.97;3.30;;;6.50;81.10;;;;;;5004178;28;20061;-81
2021/12/26 12:21:44;;;;;;;6.00;3.40;;;6.00;82.30;;;;;;5015043;28;20401;-81
2021/12/26 12:24:18;;;;;;;4.63;3.05;;;5.70;81.60;;;;;;5031261;28;20049;-83
2021/12/26 12:26:47;;;;;;;4.60;2.95;;;5.50;83.40;;;;;;5062866;28;20045;-84
2021/12/26 12:29:21;;;;;;;4.45;3.00;;;5.20;86.20;;;;;;5045933;28;20109;-84
2021/12/26 12:31:48;;;;;;;5.68;2.80;;;5.00;89.20;;;;;;5046289;28;20072;-84
2021/12/26 12:34:13;;;;;;;;;;;5.40;86.70;;;;;;5046951;28;20098;-84
2021/12/26 12:36:43;;;;;;;5.90;3.00;;;5.80;89.80;;;;;;5013728;28;20015;-84
2021/12/26 12:39:21;;;;;;;6.30;3.30;;;5.90;85.80;;;;;;5013564;28;20076;-84
2021/12/26 12:41:51;;;;;;;5.40;3.30;;;5.80;85.70;;;;;;5063857;28;20437;-84
2021/12/26 12:44:30;;;;;;;4.05;2.97;;;5.60;88.10;;;;;;5046722;28;20505;-84
2021/12/26 12:47:04;;;;;;;5.30;3.10;;;5.20;90.20;;;;;;5063240;28;20245;-84
2021/12/26 12:49:45;;;;;;;4.85;3.00;;;4.60;91.10;;;;;;5046117;28;20045;-84
2021/12/26 12:52:41;;;;;;;5.30;2.92;;;3.70;93.60;;;;;;5063218;28;20048;-84
2021/12/26 12:55:42;;;;;;;4.93;2.97;;;3.10;94.70;;;;;;5062577;28;20033;-84
2021/12/26 12:58:31;;;;;;;5.10;3.22;;;3.10;96.70;;;;;;5045224;28;20045;-85